createdAt,value
2017-06-04T00:00:19.640Z,0
2017-06-04T00:01:00.283Z,0
2017-06-04T00:01:41.871Z,0
2017-06-04T00:02:22.458Z,0
2017-06-04T00:03:03.125Z,0
2017-06-04T00:03:43.707Z,0
2017-06-04T00:04:24.252Z,0
2017-06-04T00:05:04.813Z,0
2017-06-04T00:05:45.434Z,0
2017-06-04T00:06:26.015Z,0
2017-06-04T00:07:06.539Z,0
2017-06-04T00:07:47.175Z,0
2017-06-04T00:08:27.708Z,0
2017-06-04T00:09:08.334Z,0
2017-06-04T00:09:48.945Z,0
2017-06-04T00:10:29.472Z,0
2017-06-04T00:11:10.079Z,0
2017-06-04T00:11:50.683Z,0
2017-06-04T00:12:31.236Z,0
2017-06-04T00:13:11.892Z,0
2017-06-04T00:13:52.545Z,0
2017-06-04T00:14:34.112Z,0
2017-06-04T00:15:14.681Z,0
2017-06-04T00:15:55.309Z,0
2017-06-04T00:16:36.887Z,0
2017-06-04T00:17:17.442Z,0
2017-06-04T00:17:58.702Z,0
2017-06-04T00:18:39.273Z,0
2017-06-04T00:19:19.930Z,0
2017-06-04T00:20:00.464Z,0
2017-06-04T00:20:41.029Z,0
2017-06-04T00:21:21.665Z,0
2017-06-04T00:22:02.215Z,0
2017-06-04T00:22:42.840Z,0
2017-06-04T00:23:23.418Z,0
2017-06-04T00:24:04.005Z,0
2017-06-04T00:24:44.592Z,0
2017-06-04T00:25:26.205Z,0
2017-06-04T00:26:06.734Z,0
2017-06-04T00:26:47.362Z,0
2017-06-04T00:27:27.968Z,0
2017-06-04T00:28:08.625Z,0
2017-06-04T00:28:49.155Z,0
2017-06-04T00:29:29.707Z,0
2017-06-04T00:30:10.461Z,0
2017-06-04T00:30:51.121Z,0
2017-06-04T00:31:31.677Z,0
2017-06-04T00:32:14.284Z,0
2017-06-04T00:32:54.938Z,0
2017-06-04T00:33:35.774Z,0
2017-06-04T00:34:16.325Z,0
2017-06-04T00:34:56.991Z,0
2017-06-04T00:35:37.542Z,0
2017-06-04T00:36:18.221Z,0
2017-06-04T00:36:58.838Z,0
2017-06-04T00:37:39.449Z,0
2017-06-04T00:38:19.969Z,0
2017-06-04T00:39:01.579Z,0
2017-06-04T00:39:42.193Z,0
2017-06-04T00:40:22.867Z,0
2017-06-04T00:41:03.391Z,0
2017-06-04T00:41:43.997Z,0
2017-06-04T00:42:24.570Z,0
2017-06-04T00:43:05.169Z,0
2017-06-04T00:43:45.687Z,0
2017-06-04T00:44:26.301Z,0
2017-06-04T00:45:06.882Z,0
2017-06-04T00:45:47.474Z,0
2017-06-04T00:46:27.990Z,0
2017-06-04T00:47:08.595Z,0
2017-06-04T00:47:49.181Z,0
2017-06-04T00:48:29.780Z,0
2017-06-04T00:49:10.327Z,0
2017-06-04T00:49:50.899Z,0
2017-06-04T00:50:31.481Z,0
2017-06-04T00:51:12.080Z,0
2017-06-04T00:51:52.634Z,0
2017-06-04T00:52:33.189Z,0
2017-06-04T00:53:13.794Z,0
2017-06-04T00:53:54.384Z,0
2017-06-04T00:54:34.965Z,0
2017-06-04T00:55:15.508Z,0
2017-06-04T00:55:56.095Z,0
2017-06-04T00:56:36.690Z,0
2017-06-04T00:57:17.244Z,0
2017-06-04T00:57:57.791Z,0
2017-06-04T00:58:38.418Z,0
2017-06-04T00:59:19.014Z,0
2017-06-04T00:59:59.566Z,0
2017-06-04T01:00:40.172Z,0
2017-06-04T01:01:20.767Z,0
2017-06-04T01:02:01.322Z,0
2017-06-04T01:02:41.931Z,0
2017-06-04T01:03:22.457Z,0
2017-06-04T01:04:03.081Z,0
2017-06-04T01:04:44.705Z,0
2017-06-04T01:05:25.242Z,0
2017-06-04T01:06:05.874Z,0
2017-06-04T01:06:46.439Z,0
2017-06-04T01:07:26.974Z,0
2017-06-04T01:08:07.606Z,0
2017-06-04T01:08:48.210Z,0
2017-06-04T01:09:28.750Z,0
2017-06-04T01:10:10.326Z,0
2017-06-04T01:10:50.991Z,0
2017-06-04T01:11:31.636Z,0
2017-06-04T01:12:12.223Z,0
2017-06-04T01:12:52.777Z,0
2017-06-04T01:13:33.364Z,0
2017-06-04T01:14:13.948Z,0
2017-06-04T01:14:54.526Z,0
2017-06-04T01:15:35.065Z,0
2017-06-04T01:16:15.656Z,0
2017-06-04T01:16:56.242Z,0
2017-06-04T01:17:36.806Z,0
2017-06-04T01:18:17.444Z,0
2017-06-04T01:18:58.107Z,0
2017-06-04T01:19:38.647Z,0
2017-06-04T01:20:19.301Z,0
2017-06-04T01:20:59.985Z,0
2017-06-04T01:21:40.599Z,0
2017-06-04T01:22:21.304Z,0
2017-06-04T01:23:01.824Z,0
2017-06-04T01:23:42.435Z,0
2017-06-04T01:24:23.021Z,0
2017-06-04T01:25:03.601Z,0
2017-06-04T01:25:44.133Z,0
2017-06-04T01:26:24.724Z,0
2017-06-04T01:27:05.327Z,0
2017-06-04T01:27:45.908Z,0
2017-06-04T01:28:26.431Z,0
2017-06-04T01:29:07.048Z,0
2017-06-04T01:29:47.622Z,0
2017-06-04T01:30:28.215Z,0
2017-06-04T01:31:08.750Z,0
2017-06-04T01:31:49.340Z,0
2017-06-04T01:32:29.939Z,0
2017-06-04T01:33:10.520Z,0
2017-06-04T01:33:51.054Z,0
2017-06-04T01:34:31.651Z,0
2017-06-04T01:35:12.235Z,0
2017-06-04T01:35:52.825Z,0
2017-06-04T01:36:33.341Z,0
2017-06-04T01:37:13.964Z,0
2017-06-04T01:37:54.542Z,0
2017-06-04T01:38:35.127Z,0
2017-06-04T01:39:15.664Z,0
2017-06-04T01:39:56.260Z,0
2017-06-04T01:40:36.829Z,0
2017-06-04T01:41:17.432Z,0
2017-06-04T01:41:57.966Z,0
2017-06-04T01:42:38.588Z,0
2017-06-04T01:43:19.136Z,0
2017-06-04T01:43:59.754Z,0
2017-06-04T01:44:43.059Z,0
2017-06-04T01:45:23.705Z,0
2017-06-04T01:46:04.242Z,0
2017-06-04T01:46:44.864Z,0
2017-06-04T01:47:25.379Z,0
2017-06-04T01:48:07.966Z,0
2017-06-04T01:48:49.598Z,0
2017-06-04T01:49:30.149Z,0
2017-06-04T01:50:10.702Z,0
2017-06-04T01:50:51.245Z,0
2017-06-04T01:51:31.809Z,0
2017-06-04T01:52:12.337Z,0
2017-06-04T01:52:52.892Z,0
2017-06-04T01:53:33.484Z,0
2017-06-04T01:54:14.102Z,0
2017-06-04T01:54:54.689Z,0
2017-06-04T01:55:35.302Z,0
2017-06-04T01:56:15.855Z,0
2017-06-04T01:56:58.238Z,0
2017-06-04T01:57:38.797Z,0
2017-06-04T01:58:19.376Z,0
2017-06-04T01:58:59.922Z,0
2017-06-04T01:59:40.596Z,0
2017-06-04T02:00:21.170Z,0
2017-06-04T02:01:01.717Z,0
2017-06-04T02:01:42.282Z,0
2017-06-04T02:02:22.925Z,0
2017-06-04T02:03:03.461Z,0
2017-06-04T02:03:44.073Z,0
2017-06-04T02:04:24.601Z,0
2017-06-04T02:05:05.222Z,0
2017-06-04T02:05:45.772Z,0
2017-06-04T02:06:26.337Z,0
2017-06-04T02:07:06.879Z,0
2017-06-04T02:07:47.472Z,0
2017-06-04T02:08:27.985Z,0
2017-06-04T02:09:08.512Z,0
2017-06-04T02:09:49.139Z,0
2017-06-04T02:10:29.676Z,0
2017-06-04T02:11:10.298Z,0
2017-06-04T02:11:50.866Z,0
2017-06-04T02:12:31.357Z,0
2017-06-04T02:13:11.989Z,0
2017-06-04T02:13:52.537Z,0
2017-06-04T02:14:33.144Z,0
2017-06-04T02:15:13.744Z,0
2017-06-04T02:15:54.362Z,0
2017-06-04T02:16:34.888Z,0
2017-06-04T02:17:15.511Z,0
2017-06-04T02:17:56.094Z,0
2017-06-04T02:18:37.663Z,0
2017-06-04T02:19:18.190Z,0
2017-06-04T02:19:58.737Z,0
2017-06-04T02:20:39.270Z,0
2017-06-04T02:21:20.907Z,0
2017-06-04T02:22:01.448Z,0
2017-06-04T02:22:41.995Z,0
2017-06-04T02:23:23.577Z,0
2017-06-04T02:24:04.124Z,0
2017-06-04T02:24:44.682Z,0
2017-06-04T02:25:25.267Z,0
2017-06-04T02:26:05.885Z,0
2017-06-04T02:26:46.408Z,0
2017-06-04T02:27:27.034Z,0
2017-06-04T02:28:07.590Z,0
2017-06-04T02:28:48.187Z,0
2017-06-04T02:29:28.735Z,0
2017-06-04T02:30:09.297Z,0
2017-06-04T02:30:50.859Z,0
2017-06-04T02:31:32.438Z,0
2017-06-04T02:32:12.986Z,0
2017-06-04T02:32:53.532Z,0
2017-06-04T02:33:34.084Z,0
2017-06-04T02:34:14.632Z,0
2017-06-04T02:34:55.191Z,0
2017-06-04T02:35:35.731Z,0
2017-06-04T02:36:16.280Z,0
2017-06-04T02:36:56.833Z,0
2017-06-04T02:37:37.383Z,0
2017-06-04T02:38:17.936Z,0
2017-06-04T02:38:58.496Z,0
2017-06-04T02:39:39.042Z,0
2017-06-04T02:40:19.603Z,0
2017-06-04T02:41:00.141Z,0
2017-06-04T02:41:41.713Z,0
2017-06-04T02:42:22.265Z,0
2017-06-04T02:43:02.809Z,0
2017-06-04T02:43:43.429Z,0
2017-06-04T02:44:24.019Z,0
2017-06-04T02:45:04.551Z,0
2017-06-04T02:45:46.117Z,0
2017-06-04T02:46:26.688Z,0
2017-06-04T02:47:07.206Z,0
2017-06-04T02:47:47.755Z,0
2017-06-04T02:48:28.343Z,0
2017-06-04T02:49:08.858Z,0
2017-06-04T02:49:50.431Z,0
2017-06-04T02:50:32.045Z,0
2017-06-04T02:51:12.568Z,0
2017-06-04T02:51:53.197Z,0
2017-06-04T02:52:33.801Z,0
2017-06-04T02:53:15.392Z,0
2017-06-04T02:53:56.132Z,0
2017-06-04T02:54:36.682Z,0
2017-06-04T02:55:17.329Z,0
2017-06-04T02:55:57.882Z,0
2017-06-04T02:56:38.435Z,0
2017-06-04T02:57:18.999Z,0
2017-06-04T02:57:59.574Z,0
2017-06-04T02:58:41.185Z,0
2017-06-04T02:59:21.780Z,0
2017-06-04T03:00:02.315Z,0
2017-06-04T03:00:42.926Z,0
2017-06-04T03:01:23.513Z,0
2017-06-04T03:02:04.047Z,0
2017-06-04T03:02:44.666Z,0
2017-06-04T03:03:25.247Z,0
2017-06-04T03:04:06.806Z,0
2017-06-04T03:04:47.358Z,0
2017-06-04T03:05:28.942Z,0
2017-06-04T03:06:10.533Z,0
2017-06-04T03:06:52.083Z,0
2017-06-04T03:07:32.625Z,0
2017-06-04T03:08:13.228Z,0
2017-06-04T03:08:53.879Z,0
2017-06-04T03:09:34.479Z,0
2017-06-04T03:10:15.038Z,0
2017-06-04T03:10:55.621Z,0
2017-06-04T03:11:42.803Z,0
2017-06-04T03:12:23.328Z,0
2017-06-04T03:13:09.584Z,0
2017-06-04T03:13:51.147Z,0
2017-06-04T03:14:43.604Z,0
2017-06-04T03:15:35.996Z,0
2017-06-04T03:16:16.569Z,0
2017-06-04T03:17:03.037Z,0
2017-06-04T03:17:43.567Z,0
2017-06-04T03:18:25.124Z,0
2017-06-04T03:19:18.525Z,0
2017-06-04T03:19:59.092Z,0
2017-06-04T03:20:44.300Z,0
2017-06-04T03:21:26.947Z,0
2017-06-04T03:22:09.569Z,0
2017-06-04T03:22:50.115Z,0
2017-06-04T03:23:32.696Z,0
2017-06-04T03:24:13.258Z,0
2017-06-04T03:25:06.725Z,0
2017-06-04T03:25:48.362Z,0
2017-06-04T03:26:28.892Z,0
2017-06-04T06:37:20.229Z,265
2017-06-04T06:38:01.767Z,265
2017-06-04T06:38:49.316Z,270
2017-06-04T06:39:29.862Z,270
2017-06-04T06:40:15.076Z,270
2017-06-04T06:41:01.342Z,275
2017-06-04T06:41:41.907Z,275
2017-06-04T06:42:22.469Z,275
2017-06-04T06:43:05.068Z,275
2017-06-04T06:43:47.708Z,275
2017-06-04T06:44:39.160Z,280
2017-06-04T06:45:19.677Z,280
2017-06-04T06:46:00.300Z,285
2017-06-04T06:46:42.938Z,285
2017-06-04T06:47:30.170Z,285
2017-06-04T06:48:10.711Z,290
2017-06-04T06:48:57.914Z,295
2017-06-04T06:49:38.443Z,295
2017-06-04T06:50:19.054Z,300
2017-06-04T06:50:59.642Z,300
2017-06-04T06:51:40.167Z,300
2017-06-04T06:52:20.805Z,305
2017-06-04T06:53:02.418Z,305
2017-06-04T06:53:45.016Z,305
2017-06-04T06:54:25.564Z,305
2017-06-04T06:55:20.879Z,310
2017-06-04T06:56:02.438Z,310
2017-06-04T06:56:42.959Z,310
2017-06-04T06:57:23.538Z,310
2017-06-04T06:58:08.900Z,310
2017-06-04T06:58:49.455Z,310
2017-06-04T06:59:32.052Z,310
2017-06-04T07:00:17.153Z,315
2017-06-04T07:00:59.032Z,320
2017-06-04T07:01:40.609Z,325
2017-06-04T07:02:22.188Z,335
2017-06-04T07:03:02.717Z,335
2017-06-04T07:03:44.318Z,340
2017-06-04T07:04:24.853Z,345
2017-06-04T07:05:05.454Z,345
2017-06-04T07:05:45.968Z,350
2017-06-04T07:06:37.345Z,350
2017-06-04T07:07:17.986Z,350
2017-06-04T07:07:59.598Z,345
2017-06-04T07:08:50.850Z,345
2017-06-04T07:09:32.499Z,345
2017-06-04T07:10:18.933Z,340
2017-06-04T07:11:01.517Z,340
2017-06-04T07:11:42.071Z,340
2017-06-04T07:12:22.815Z,340
2017-06-04T07:13:03.396Z,335
2017-06-04T07:13:44.039Z,345
2017-06-04T07:14:24.687Z,340
2017-06-04T07:15:05.332Z,340
2017-06-04T07:15:46.945Z,335
2017-06-04T07:16:32.370Z,335
2017-06-04T07:17:13.986Z,335
2017-06-04T07:17:56.662Z,340
2017-06-04T07:18:42.154Z,340
2017-06-04T07:19:22.700Z,340
2017-06-04T07:20:03.281Z,340
2017-06-04T07:20:44.901Z,345
2017-06-04T07:21:25.483Z,340
2017-06-04T07:22:06.009Z,345
2017-06-04T07:22:48.605Z,345
2017-06-04T07:23:31.251Z,350
2017-06-04T07:24:12.980Z,355
2017-06-04T07:24:53.492Z,350
2017-06-04T07:25:34.083Z,355
2017-06-04T07:26:14.635Z,355
2017-06-04T07:26:55.162Z,350
2017-06-04T07:27:35.770Z,345
2017-06-04T07:28:18.414Z,350
2017-06-04T07:28:58.947Z,360
2017-06-04T07:29:39.542Z,365
2017-06-04T07:30:26.893Z,370
2017-06-04T07:31:07.475Z,370
2017-06-04T07:31:48.044Z,370
2017-06-04T07:32:28.679Z,370
2017-06-04T07:33:10.016Z,370
2017-06-04T07:34:02.613Z,375
2017-06-04T07:34:43.271Z,380
2017-06-04T07:35:23.934Z,390
2017-06-04T07:36:09.064Z,385
2017-06-04T07:36:50.643Z,370
2017-06-04T07:37:33.259Z,355
2017-06-04T07:38:13.906Z,355
2017-06-04T07:39:09.090Z,350
2017-06-04T07:39:51.030Z,355
2017-06-04T07:40:31.611Z,355
2017-06-04T07:41:12.219Z,355
2017-06-04T07:41:53.800Z,345
2017-06-04T07:42:41.405Z,340
2017-06-04T07:43:27.904Z,345
2017-06-04T07:44:08.615Z,340
2017-06-04T07:44:51.511Z,330
2017-06-04T07:45:32.117Z,325
2017-06-04T07:46:13.452Z,315
2017-06-04T07:47:01.004Z,315
2017-06-04T07:47:41.654Z,305
2017-06-04T07:48:22.233Z,305
2017-06-04T07:49:02.940Z,310
2017-06-04T07:49:43.569Z,310
2017-06-04T07:50:34.907Z,300
2017-06-04T07:51:20.208Z,295
2017-06-04T07:52:00.827Z,285
2017-06-04T07:52:48.097Z,285
2017-06-04T07:53:33.408Z,285
2017-06-04T07:54:20.897Z,285
2017-06-04T07:55:06.435Z,295
2017-06-04T07:55:47.017Z,295
2017-06-04T07:56:27.585Z,325
2017-06-04T07:57:08.132Z,355
2017-06-04T07:58:01.390Z,350
2017-06-04T07:58:42.018Z,330
2017-06-04T07:59:23.596Z,305
2017-06-04T08:00:06.209Z,325
2017-06-04T08:00:46.783Z,335
2017-06-04T08:01:29.384Z,335
2017-06-04T08:02:09.896Z,340
2017-06-04T08:02:52.509Z,350
2017-06-04T08:03:33.084Z,360
2017-06-04T08:04:13.604Z,375
2017-06-04T08:04:54.238Z,375
2017-06-04T08:05:36.862Z,360
2017-06-04T08:06:22.151Z,360
2017-06-04T08:07:02.676Z,375
2017-06-04T08:07:44.321Z,370
2017-06-04T08:08:25.917Z,355
2017-06-04T08:09:17.431Z,315
2017-06-04T08:09:58.067Z,280
2017-06-04T08:10:38.621Z,245
2017-06-04T08:11:21.246Z,240
2017-06-04T08:12:07.431Z,245
2017-06-04T08:12:49.115Z,270
2017-06-04T08:13:29.752Z,310
2017-06-04T08:14:12.360Z,320
2017-06-04T08:14:53.925Z,320
2017-06-04T08:15:35.476Z,335
2017-06-04T08:16:17.052Z,355
2017-06-04T08:16:58.694Z,365
2017-06-04T08:17:43.897Z,370
2017-06-04T08:18:26.577Z,355
2017-06-04T08:19:08.208Z,345
2017-06-04T08:19:53.487Z,310
2017-06-04T08:20:35.113Z,300
2017-06-04T08:21:20.365Z,320
2017-06-04T08:22:01.657Z,295
2017-06-04T08:22:44.354Z,275
2017-06-04T08:23:24.930Z,280
2017-06-04T08:24:05.455Z,295
2017-06-04T08:24:51.593Z,280
2017-06-04T08:25:32.181Z,285
2017-06-04T08:26:13.855Z,285
2017-06-04T08:26:54.438Z,310
2017-06-04T08:27:34.978Z,295
2017-06-04T08:28:15.549Z,285
2017-06-04T08:28:56.164Z,305
2017-06-04T08:29:36.740Z,290
2017-06-04T08:30:17.449Z,295
2017-06-04T08:30:58.126Z,315
2017-06-04T08:31:38.777Z,335
2017-06-04T08:32:19.352Z,345
2017-06-04T08:32:59.888Z,350
2017-06-04T08:33:40.540Z,345
2017-06-04T08:34:21.211Z,295
2017-06-04T08:35:01.831Z,270
2017-06-04T08:35:42.528Z,275
2017-06-04T08:36:25.104Z,245
2017-06-04T08:37:05.725Z,255
2017-06-04T08:37:46.275Z,270
2017-06-04T08:38:32.707Z,290
2017-06-04T08:39:13.252Z,315
2017-06-04T08:39:53.865Z,315
2017-06-04T08:40:35.478Z,345
2017-06-04T08:41:17.174Z,345
2017-06-04T08:41:57.699Z,310
2017-06-04T08:42:43.103Z,285
2017-06-04T08:43:34.472Z,295
2017-06-04T08:44:17.146Z,335
2017-06-04T08:44:58.747Z,340
2017-06-04T08:45:40.406Z,345
2017-06-04T08:46:23.013Z,325
2017-06-04T08:47:03.562Z,330
2017-06-04T08:47:48.932Z,370
2017-06-04T08:48:29.693Z,365
2017-06-04T08:49:10.353Z,375
2017-06-04T08:49:53.039Z,345
2017-06-04T08:50:33.688Z,330
2017-06-04T08:51:14.261Z,330
2017-06-04T08:51:54.911Z,355
2017-06-04T08:52:35.470Z,370
2017-06-04T08:53:16.041Z,375
2017-06-04T08:53:56.557Z,340
2017-06-04T08:54:37.178Z,335
2017-06-04T08:55:17.724Z,330
2017-06-04T08:56:00.353Z,330
2017-06-04T08:56:40.982Z,335
2017-06-04T08:57:21.528Z,345
2017-06-04T08:58:02.190Z,355
2017-06-04T08:58:42.741Z,355
2017-06-04T08:59:23.297Z,345
2017-06-04T09:00:04.005Z,325
2017-06-04T09:00:44.656Z,300
2017-06-04T09:01:25.238Z,280
2017-06-04T09:02:05.795Z,270
2017-06-04T09:02:47.368Z,275
2017-06-04T09:03:27.942Z,280
2017-06-04T09:04:09.621Z,275
2017-06-04T09:04:50.257Z,280
2017-06-04T09:05:30.929Z,280
2017-06-04T09:06:11.459Z,290
2017-06-04T09:06:52.070Z,290
2017-06-04T09:07:32.585Z,285
2017-06-04T09:08:13.211Z,310
2017-06-04T09:08:53.734Z,280
2017-06-04T09:09:34.300Z,310
2017-06-04T09:10:14.839Z,285
2017-06-04T09:10:55.414Z,285
2017-06-04T09:11:35.941Z,280
2017-06-04T09:12:16.549Z,280
2017-06-04T09:12:57.087Z,280
2017-06-04T09:13:37.684Z,285
2017-06-04T09:14:18.323Z,265
2017-06-04T09:14:58.903Z,265
2017-06-04T09:15:40.506Z,260
2017-06-04T09:16:21.046Z,250
2017-06-04T09:17:01.716Z,245
2017-06-04T09:17:42.288Z,255
2017-06-04T09:18:22.930Z,250
2017-06-04T09:19:03.500Z,235
2017-06-04T09:19:44.133Z,235
2017-06-04T09:20:24.788Z,250
2017-06-04T09:21:05.336Z,290
2017-06-04T09:21:46.122Z,270
2017-06-04T09:22:26.701Z,275
2017-06-04T09:23:07.333Z,305
2017-06-04T09:23:48.219Z,310
2017-06-04T09:24:28.784Z,325
2017-06-04T09:25:09.492Z,320
2017-06-04T09:25:50.068Z,315
2017-06-04T09:26:32.083Z,315
2017-06-04T09:27:12.619Z,315
2017-06-04T09:27:53.178Z,315
2017-06-04T09:28:33.724Z,315
2017-06-04T09:29:15.388Z,310
2017-06-04T09:29:55.977Z,310
2017-06-04T09:30:36.547Z,305
2017-06-04T09:31:17.285Z,275
2017-06-04T09:31:57.912Z,285
2017-06-04T09:32:38.501Z,310
2017-06-04T09:33:19.042Z,300
2017-06-04T09:33:59.649Z,260
2017-06-04T09:34:40.232Z,265
2017-06-04T09:35:20.919Z,275
2017-06-04T09:36:01.525Z,280
2017-06-04T09:36:42.183Z,315
2017-06-04T09:37:22.870Z,320
2017-06-04T09:38:03.471Z,325
2017-06-04T09:38:44.048Z,330
2017-06-04T09:39:24.672Z,325
2017-06-04T09:40:05.231Z,325
2017-06-04T09:40:45.899Z,325
2017-06-04T09:41:26.532Z,320
2017-06-04T09:42:07.084Z,320
2017-06-04T09:42:47.713Z,315
2017-06-04T09:43:28.299Z,315
2017-06-04T09:44:10.060Z,310
2017-06-04T09:44:50.615Z,310
2017-06-04T09:45:31.261Z,320
2017-06-04T09:46:11.954Z,325
2017-06-04T09:46:54.526Z,330
2017-06-04T09:47:35.087Z,340
2017-06-04T09:48:16.675Z,345
2017-06-04T09:48:57.236Z,340
2017-06-04T09:49:37.818Z,335
2017-06-04T09:50:18.540Z,325
2017-06-04T09:50:59.157Z,320
2017-06-04T09:51:39.856Z,325
2017-06-04T09:52:20.500Z,335
2017-06-04T09:53:01.234Z,340
2017-06-04T09:53:42.799Z,335
2017-06-04T09:54:24.475Z,320
2017-06-04T09:55:05.036Z,315
2017-06-04T09:55:45.676Z,320
2017-06-04T09:56:27.259Z,320
2017-06-04T09:57:07.906Z,315
2017-06-04T09:57:48.459Z,315
2017-06-04T09:58:29.031Z,310
2017-06-04T09:59:09.552Z,300
2017-06-04T09:59:50.169Z,300
2017-06-04T10:00:31.068Z,310
2017-06-04T10:01:11.616Z,315
2017-06-04T10:01:52.231Z,315
2017-06-04T10:02:32.775Z,315
2017-06-04T10:03:14.391Z,315
2017-06-04T10:03:54.940Z,310
2017-06-04T10:04:36.587Z,305
2017-06-04T10:05:17.130Z,295
2017-06-04T10:05:57.707Z,280
2017-06-04T10:06:38.235Z,270
2017-06-04T10:07:18.821Z,265
2017-06-04T10:07:59.414Z,260
2017-06-04T10:08:39.958Z,260
2017-06-04T10:09:20.522Z,260
2017-06-04T10:10:01.123Z,255
2017-06-04T10:10:41.673Z,255
2017-06-04T10:11:22.255Z,250
2017-06-04T10:12:02.884Z,250
2017-06-04T10:12:43.416Z,245
2017-06-04T10:13:24.060Z,245
2017-06-04T10:14:04.597Z,245
2017-06-04T10:14:45.219Z,240
2017-06-04T10:15:25.763Z,215
2017-06-04T10:16:06.308Z,245
2017-06-04T10:16:46.902Z,245
2017-06-04T10:17:27.417Z,245
2017-06-04T10:18:08.027Z,250
2017-06-04T10:18:48.621Z,250
2017-06-04T10:19:29.301Z,250
2017-06-04T10:20:09.862Z,255
2017-06-04T10:20:50.670Z,255
2017-06-04T10:21:31.719Z,245
2017-06-04T10:22:12.252Z,245
2017-06-04T10:22:52.919Z,240
2017-06-04T10:23:33.497Z,240
2017-06-04T10:24:14.076Z,245
2017-06-04T10:24:55.229Z,245
2017-06-04T10:25:35.862Z,240
2017-06-04T10:26:16.432Z,235
2017-06-04T10:26:58.076Z,205
2017-06-04T10:27:38.745Z,205
2017-06-04T10:28:19.281Z,240
2017-06-04T10:28:59.919Z,245
2017-06-04T10:29:40.584Z,240
2017-06-04T10:30:21.225Z,245
2017-06-04T10:31:01.817Z,185
2017-06-04T10:31:42.426Z,185
2017-06-04T10:32:24.004Z,195
2017-06-04T10:33:08.431Z,245
2017-06-04T10:33:49.094Z,245
2017-06-04T10:34:29.847Z,245
2017-06-04T10:35:10.453Z,240
2017-06-04T10:35:56.355Z,245
2017-06-04T10:36:37.226Z,235
2017-06-04T10:37:17.848Z,235
2017-06-04T10:37:59.093Z,250
2017-06-04T10:38:39.903Z,250
2017-06-04T10:39:20.486Z,255
2017-06-04T10:40:02.822Z,260
2017-06-04T10:40:44.497Z,260
2017-06-04T10:41:26.845Z,260
2017-06-04T10:42:07.550Z,275
2017-06-04T10:42:48.185Z,275
2017-06-04T10:43:28.845Z,280
2017-06-04T10:44:09.445Z,280
2017-06-04T10:44:50.155Z,240
2017-06-04T10:45:30.819Z,240
2017-06-04T10:46:12.150Z,240
2017-06-04T10:46:54.864Z,250
2017-06-04T10:47:35.599Z,265
2017-06-04T10:48:16.182Z,305
2017-06-04T10:48:57.913Z,290
2017-06-04T10:49:38.580Z,305
2017-06-04T10:50:19.335Z,310
2017-06-04T10:51:00.458Z,320
2017-06-04T10:51:41.161Z,355
2017-06-04T10:52:21.937Z,390
2017-06-04T10:53:02.638Z,400
2017-06-04T10:53:45.727Z,365
2017-06-04T10:54:27.424Z,380
2017-06-04T10:55:08.280Z,435
2017-06-04T10:55:48.809Z,445
2017-06-04T10:56:29.398Z,440
2017-06-04T10:57:11.022Z,440
2017-06-04T10:57:53.140Z,430
2017-06-04T10:58:33.721Z,420
2017-06-04T10:59:14.312Z,355
2017-06-04T10:59:55.921Z,335
2017-06-04T11:00:36.573Z,325
2017-06-04T11:01:18.145Z,320
2017-06-04T11:01:58.688Z,320
2017-06-04T11:02:40.211Z,320
2017-06-04T11:03:20.742Z,320
2017-06-04T11:04:01.676Z,320
2017-06-04T11:04:42.240Z,315
2017-06-04T11:05:22.891Z,305
2017-06-04T11:06:03.433Z,310
2017-06-04T11:06:43.993Z,305
2017-06-04T11:07:24.625Z,310
2017-06-04T11:08:05.192Z,325
2017-06-04T11:08:45.713Z,340
2017-06-04T11:09:26.354Z,350
2017-06-04T11:10:06.910Z,360
2017-06-04T11:10:47.536Z,365
2017-06-04T11:11:28.114Z,375
2017-06-04T11:12:08.687Z,385
2017-06-04T11:12:49.274Z,390
2017-06-04T11:13:29.861Z,390
2017-06-04T11:14:10.407Z,390
2017-06-04T11:14:51.994Z,390
2017-06-04T11:15:32.536Z,390
2017-06-04T11:16:13.087Z,390
2017-06-04T11:16:53.645Z,385
2017-06-04T11:17:36.249Z,380
2017-06-04T11:18:16.894Z,375
2017-06-04T11:18:57.459Z,375
2017-06-04T11:19:38.268Z,380
2017-06-04T11:20:18.851Z,395
2017-06-04T11:20:59.396Z,395
2017-06-04T11:21:39.948Z,395
2017-06-04T11:22:20.508Z,375
2017-06-04T11:23:02.078Z,355
2017-06-04T11:23:42.672Z,335
2017-06-04T11:24:23.280Z,320
2017-06-04T11:25:03.873Z,305
2017-06-04T11:25:44.419Z,295
2017-06-04T11:26:25.048Z,290
2017-06-04T11:27:05.682Z,290
2017-06-04T11:27:46.274Z,295
2017-06-04T11:28:26.799Z,300
2017-06-04T11:29:07.398Z,310
2017-06-04T11:29:47.922Z,320
2017-06-04T11:30:28.498Z,330
2017-06-04T11:31:09.124Z,340
2017-06-04T11:31:50.667Z,350
2017-06-04T11:32:31.211Z,355
2017-06-04T11:33:12.809Z,355
2017-06-04T11:33:53.346Z,355
2017-06-04T11:34:33.996Z,360
2017-06-04T11:35:14.563Z,365
2017-06-04T11:35:55.133Z,370
2017-06-04T11:36:35.758Z,375
2017-06-04T11:37:16.291Z,380
2017-06-04T11:37:56.911Z,385
2017-06-04T11:38:37.528Z,395
2017-06-04T11:39:18.160Z,375
2017-06-04T11:39:58.696Z,370
2017-06-04T11:40:39.360Z,370
2017-06-04T11:41:19.914Z,370
2017-06-04T11:42:02.526Z,370
2017-06-04T11:42:43.154Z,370
2017-06-04T11:43:23.705Z,370
2017-06-04T11:44:05.328Z,360
2017-06-04T11:44:45.872Z,355
2017-06-04T11:45:26.446Z,340
2017-06-04T11:46:06.955Z,335
2017-06-04T11:46:48.552Z,320
2017-06-04T11:47:29.109Z,310
2017-06-04T11:48:09.663Z,305
2017-06-04T11:48:51.302Z,300
2017-06-04T11:49:31.844Z,300
2017-06-04T11:50:12.388Z,295
2017-06-04T11:50:52.980Z,295
2017-06-04T11:51:33.591Z,295
2017-06-04T11:52:14.120Z,355
2017-06-04T11:52:54.692Z,360
2017-06-04T11:53:35.250Z,345
2017-06-04T11:54:17.848Z,340
2017-06-04T11:54:58.422Z,330
2017-06-04T11:55:39.085Z,330
2017-06-04T11:56:19.603Z,335
2017-06-04T11:57:00.155Z,350
2017-06-04T11:57:40.709Z,325
2017-06-04T11:58:21.296Z,320
2017-06-04T11:59:01.825Z,330
2017-06-04T11:59:42.453Z,340
2017-06-04T12:00:22.973Z,345
2017-06-04T12:01:03.531Z,355
2017-06-04T12:01:46.203Z,395
2017-06-04T12:02:26.735Z,370
2017-06-04T12:03:07.371Z,370
2017-06-04T12:03:47.971Z,375
2017-06-04T12:04:28.594Z,380
2017-06-04T12:05:11.228Z,385
2017-06-04T12:05:51.751Z,390
2017-06-04T12:06:32.275Z,390
2017-06-04T12:07:12.911Z,390
2017-06-04T12:07:53.480Z,390
2017-06-04T12:08:34.049Z,390
2017-06-04T12:09:15.734Z,395
2017-06-04T12:09:56.271Z,395
2017-06-04T12:10:36.792Z,400
2017-06-04T12:11:17.423Z,400
2017-06-04T12:11:58.000Z,400
2017-06-04T12:12:38.556Z,410
2017-06-04T12:13:19.156Z,405
2017-06-04T12:13:59.772Z,460
2017-06-04T12:14:40.299Z,420
2017-06-04T12:15:20.853Z,440
2017-06-04T12:16:01.389Z,435
2017-06-04T12:16:41.973Z,425
2017-06-04T12:17:22.606Z,380
2017-06-04T12:18:03.290Z,380
2017-06-04T12:18:43.925Z,385
2017-06-04T12:19:24.450Z,380
2017-06-04T12:20:07.041Z,375
2017-06-04T12:20:47.556Z,365
2017-06-04T12:21:28.128Z,365
2017-06-04T12:22:08.642Z,370
2017-06-04T12:22:49.273Z,375
2017-06-04T12:23:29.827Z,375
2017-06-04T12:24:10.379Z,380
2017-06-04T12:24:51.959Z,380
2017-06-04T12:25:32.612Z,390
2017-06-04T12:26:13.258Z,400
2017-06-04T12:26:53.839Z,370
2017-06-04T12:27:34.514Z,375
2017-06-04T12:28:15.065Z,415
2017-06-04T12:28:55.610Z,380
2017-06-04T12:29:36.131Z,385
2017-06-04T12:30:16.794Z,425
2017-06-04T12:30:57.345Z,415
2017-06-04T12:31:38.925Z,385
2017-06-04T12:32:19.477Z,365
2017-06-04T12:33:00.042Z,375
2017-06-04T12:33:41.624Z,375
2017-06-04T12:34:22.251Z,360
2017-06-04T12:35:02.874Z,345
2017-06-04T12:35:43.394Z,330
2017-06-04T12:36:24.037Z,325
2017-06-04T12:37:09.193Z,320
2017-06-04T12:37:49.786Z,315
2017-06-04T12:38:31.438Z,315
2017-06-04T12:39:12.068Z,315
2017-06-04T12:39:52.614Z,320
2017-06-04T12:40:34.175Z,310
2017-06-04T12:41:14.711Z,305
2017-06-04T12:41:55.329Z,300
2017-06-04T12:42:35.870Z,300
2017-06-04T12:43:17.507Z,295
2017-06-04T12:43:58.091Z,290
2017-06-04T12:44:38.619Z,290
2017-06-04T12:45:20.247Z,280
2017-06-04T12:46:00.870Z,275
2017-06-04T12:46:41.448Z,275
2017-06-04T12:47:22.073Z,280
2017-06-04T12:48:03.661Z,295
2017-06-04T12:48:44.215Z,310
2017-06-04T12:49:24.784Z,335
2017-06-04T12:50:05.321Z,340
2017-06-04T12:50:45.932Z,345
2017-06-04T12:51:26.508Z,345
2017-06-04T12:52:07.188Z,345